sensor_id;sensor_type;location;lat;lon;timestamp;P1;durP1;ratioP1;P2;durP2;ratioP2
2756;SDS011;1386;50.862;6.494;2022-08-21T00:01:39;14.15;;;8.20;;
2756;SDS011;1386;50.862;6.494;2022-08-21T00:04:07;9.37;;;7.13;;
2756;SDS011;1386;50.862;6.494;2022-08-21T00:06:35;17.37;;;7.10;;
2756;SDS011;1386;50.862;6.494;2022-08-21T00:09:03;16.37;;;7.83;;
2756;SDS011;1386;50.862;6.494;2022-08-21T00:11:32;10.00;;;6.43;;
2756;SDS011;1386;50.862;6.494;2022-08-21T00:14:00;13.03;;;6.63;;
2756;SDS011;1386;50.862;6.494;2022-08-21T00:16:27;10.63;;;7.00;;
2756;SDS011;1386;50.862;6.494;2022-08-21T00:18:55;11.00;;;7.40;;
2756;SDS011;1386;50.862;6.494;2022-08-21T00:21:22;10.50;;;7.97;;
2756;SDS011;1386;50.862;6.494;2022-08-21T00:23:50;11.73;;;8.13;;
2756;SDS011;1386;50.862;6.494;2022-08-21T00:26:17;18.73;;;8.33;;
2756;SDS011;1386;50.862;6.494;2022-08-21T00:28:43;13.27;;;8.73;;
2756;SDS011;1386;50.862;6.494;2022-08-21T00:31:11;16.00;;;9.10;;
2756;SDS011;1386;50.862;6.494;2022-08-21T00:33:38;16.70;;;9.10;;
2756;SDS011;1386;50.862;6.494;2022-08-21T00:36:06;12.73;;;7.70;;
2756;SDS011;1386;50.862;6.494;2022-08-21T00:38:33;11.87;;;7.40;;
2756;SDS011;1386;50.862;6.494;2022-08-21T00:41:01;12.50;;;6.93;;
2756;SDS011;1386;50.862;6.494;2022-08-21T00:43:31;15.33;;;8.20;;
2756;SDS011;1386;50.862;6.494;2022-08-21T00:45:59;12.03;;;7.97;;
2756;SDS011;1386;50.862;6.494;2022-08-21T00:48:26;9.77;;;7.00;;
2756;SDS011;1386;50.862;6.494;2022-08-21T00:50:55;10.53;;;8.27;;
2756;SDS011;1386;50.862;6.494;2022-08-21T00:53:25;10.70;;;8.13;;
2756;SDS011;1386;50.862;6.494;2022-08-21T00:55:54;9.10;;;6.53;;
2756;SDS011;1386;50.862;6.494;2022-08-21T00:58:21;11.13;;;7.07;;
2756;SDS011;1386;50.862;6.494;2022-08-21T01:00:50;10.30;;;6.37;;
2756;SDS011;1386;50.862;6.494;2022-08-21T01:03:18;10.97;;;6.40;;
2756;SDS011;1386;50.862;6.494;2022-08-21T01:05:49;9.30;;;6.20;;
2756;SDS011;1386;50.862;6.494;2022-08-21T01:08:16;11.57;;;6.90;;
2756;SDS011;1386;50.862;6.494;2022-08-21T01:10:45;10.63;;;6.97;;
2756;SDS011;1386;50.862;6.494;2022-08-21T01:13:13;15.20;;;8.23;;
2756;SDS011;1386;50.862;6.494;2022-08-21T01:15:43;8.63;;;6.10;;
2756;SDS011;1386;50.862;6.494;2022-08-21T01:18:13;14.20;;;6.77;;
2756;SDS011;1386;50.862;6.494;2022-08-21T01:20:41;12.20;;;7.50;;
2756;SDS011;1386;50.862;6.494;2022-08-21T01:23:13;11.43;;;7.00;;
2756;SDS011;1386;50.862;6.494;2022-08-21T01:25:40;13.97;;;7.53;;
2756;SDS011;1386;50.862;6.494;2022-08-21T01:28:09;11.07;;;7.20;;
2756;SDS011;1386;50.862;6.494;2022-08-21T04:46:46;9.30;;;5.00;;
2756;SDS011;1386;50.862;6.494;2022-08-21T04:49:13;6.33;;;4.87;;
2756;SDS011;1386;50.862;6.494;2022-08-21T04:51:40;7.80;;;5.30;;
2756;SDS011;1386;50.862;6.494;2022-08-21T04:54:09;9.43;;;4.90;;
2756;SDS011;1386;50.862;6.494;2022-08-21T04:56:41;10.43;;;4.70;;
2756;SDS011;1386;50.862;6.494;2022-08-21T04:59:12;7.17;;;5.50;;
2756;SDS011;1386;50.862;6.494;2022-08-21T05:01:41;7.30;;;4.77;;
2756;SDS011;1386;50.862;6.494;2022-08-21T05:04:11;5.27;;;4.70;;
2756;SDS011;1386;50.862;6.494;2022-08-21T05:06:42;6.23;;;4.67;;
2756;SDS011;1386;50.862;6.494;2022-08-21T05:09:12;8.70;;;5.27;;
2756;SDS011;1386;50.862;6.494;2022-08-21T05:11:40;7.60;;;4.97;;
2756;SDS011;1386;50.862;6.494;2022-08-21T05:14:08;8.83;;;4.67;;
2756;SDS011;1386;50.862;6.494;2022-08-21T05:16:36;8.77;;;4.50;;
2756;SDS011;1386;50.862;6.494;2022-08-21T05:19:03;6.90;;;5.23;;
2756;SDS011;1386;50.862;6.494;2022-08-21T05:21:32;7.33;;;5.10;;
2756;SDS011;1386;50.862;6.494;2022-08-21T05:23:59;6.60;;;5.00;;
2756;SDS011;1386;50.862;6.494;2022-08-21T05:26:26;13.20;;;4.70;;
2756;SDS011;1386;50.862;6.494;2022-08-21T05:28:53;5.37;;;4.83;;
2756;SDS011;1386;50.862;6.494;2022-08-21T05:31:20;9.77;;;4.20;;
2756;SDS011;1386;50.862;6.494;2022-08-21T05:33:47;5.00;;;4.03;;
2756;SDS011;1386;50.862;6.494;2022-08-21T05:36:14;5.97;;;4.70;;
2756;SDS011;1386;50.862;6.494;2022-08-21T05:38:44;8.23;;;4.40;;
2756;SDS011;1386;50.862;6.494;2022-08-21T05:41:11;6.90;;;4.30;;
2756;SDS011;1386;50.862;6.494;2022-08-21T05:43:38;9.00;;;4.27;;
2756;SDS011;1386;50.862;6.494;2022-08-21T05:46:06;5.37;;;4.30;;
2756;SDS011;1386;50.862;6.494;2022-08-21T05:48:34;8.33;;;4.30;;
2756;SDS011;1386;50.862;6.494;2022-08-21T05:51:03;5.77;;;4.00;;
2756;SDS011;1386;50.862;6.494;2022-08-21T05:53:32;8.70;;;3.90;;
2756;SDS011;1386;50.862;6.494;2022-08-21T05:56:01;9.47;;;4.00;;
2756;SDS011;1386;50.862;6.494;2022-08-21T05:58:29;7.60;;;3.87;;
2756;SDS011;1386;50.862;6.494;2022-08-21T06:00:58;7.87;;;3.60;;
2756;SDS011;1386;50.862;6.494;2022-08-21T06:03:26;6.73;;;3.43;;
2756;SDS011;1386;50.862;6.494;2022-08-21T06:05:55;7.33;;;3.27;;
2756;SDS011;1386;50.862;6.494;2022-08-21T06:08:22;5.50;;;3.80;;
2756;SDS011;1386;50.862;6.494;2022-08-21T06:10:50;6.90;;;3.53;;
2756;SDS011;1386;50.862;6.494;2022-08-21T06:13:20;5.47;;;3.17;;
2756;SDS011;1386;50.862;6.494;2022-08-21T06:15:47;5.00;;;2.87;;
2756;SDS011;1386;50.862;6.494;2022-08-21T06:18:15;9.40;;;3.63;;
2756;SDS011;1386;50.862;6.494;2022-08-21T06:20:43;3.57;;;3.17;;
2756;SDS011;1386;50.862;6.494;2022-08-21T06:23:10;6.37;;;3.53;;
2756;SDS011;1386;50.862;6.494;2022-08-21T06:25:37;5.83;;;3.30;;
2756;SDS011;1386;50.862;6.494;2022-08-21T06:28:05;5.07;;;3.53;;
2756;SDS011;1386;50.862;6.494;2022-08-21T06:30:36;7.60;;;3.90;;
2756;SDS011;1386;50.862;6.494;2022-08-21T06:33:04;8.90;;;3.67;;
2756;SDS011;1386;50.862;6.494;2022-08-21T06:35:32;6.87;;;3.23;;
2756;SDS011;1386;50.862;6.494;2022-08-21T06:37:59;6.60;;;3.50;;
2756;SDS011;1386;50.862;6.494;2022-08-21T06:40:26;3.40;;;3.00;;
2756;SDS011;1386;50.862;6.494;2022-08-21T06:42:54;10.87;;;3.10;;
2756;SDS011;1386;50.862;6.494;2022-08-21T06:45:21;8.10;;;3.10;;
2756;SDS011;1386;50.862;6.494;2022-08-21T06:47:50;6.73;;;2.47;;
2756;SDS011;1386;50.862;6.494;2022-08-21T06:50:17;7.53;;;3.37;;
2756;SDS011;1386;50.862;6.494;2022-08-21T06:52:44;3.87;;;2.97;;
2756;SDS011;1386;50.862;6.494;2022-08-21T06:55:11;4.83;;;3.13;;
2756;SDS011;1386;50.862;6.494;2022-08-21T06:57:39;9.70;;;3.10;;
2756;SDS011;1386;50.862;6.494;2022-08-21T07:00:06;3.87;;;2.87;;
2756;SDS011;1386;50.862;6.494;2022-08-21T07:02:34;7.20;;;3.00;;
2756;SDS011;1386;50.862;6.494;2022-08-21T07:05:03;7.17;;;2.70;;
2756;SDS011;1386;50.862;6.494;2022-08-21T07:07:31;4.77;;;2.83;;
2756;SDS011;1386;50.862;6.494;2022-08-21T07:10:04;7.20;;;2.30;;
2756;SDS011;1386;50.862;6.494;2022-08-21T07:12:31;6.23;;;2.40;;
2756;SDS011;1386;50.862;6.494;2022-08-21T07:14:58;6.37;;;2.13;;
2756;SDS011;1386;50.862;6.494;2022-08-21T07:17:25;5.30;;;2.50;;
2756;SDS011;1386;50.862;6.494;2022-08-21T07:19:52;6.73;;;2.50;;
2756;SDS011;1386;50.862;6.494;2022-08-21T07:22:20;7.00;;;2.73;;
2756;SDS011;1386;50.862;6.494;2022-08-21T07:24:47;5.67;;;2.07;;
2756;SDS011;1386;50.862;6.494;2022-08-21T07:27:14;5.57;;;2.43;;
2756;SDS011;1386;50.862;6.494;2022-08-21T07:29:41;5.93;;;2.60;;
2756;SDS011;1386;50.862;6.494;2022-08-21T07:32:08;4.60;;;2.00;;
2756;SDS011;1386;50.862;6.494;2022-08-21T07:34:35;4.20;;;2.47;;
2756;SDS011;1386;50.862;6.494;2022-08-21T07:37:02;3.80;;;1.80;;
2756;SDS011;1386;50.862;6.494;2022-08-21T07:39:30;9.27;;;2.50;;
2756;SDS011;1386;50.862;6.494;2022-08-21T07:42:06;7.30;;;2.70;;
2756;SDS011;1386;50.862;6.494;2022-08-21T07:44:35;4.50;;;2.27;;
2756;SDS011;1386;50.862;6.494;2022-08-21T07:47:02;2.83;;;2.00;;
2756;SDS011;1386;50.862;6.494;2022-08-21T07:49:29;4.90;;;2.20;;
2756;SDS011;1386;50.862;6.494;2022-08-21T07:51:56;8.43;;;2.30;;
2756;SDS011;1386;50.862;6.494;2022-08-21T07:54:23;14.73;;;3.27;;
2756;SDS011;1386;50.862;6.494;2022-08-21T07:56:52;5.30;;;2.17;;
2756;SDS011;1386;50.862;6.494;2022-08-21T07:59:19;7.70;;;2.47;;
2756;SDS011;1386;50.862;6.494;2022-08-21T08:01:46;5.07;;;1.80;;
2756;SDS011;1386;50.862;6.494;2022-08-21T08:04:13;4.80;;;1.60;;
2756;SDS011;1386;50.862;6.494;2022-08-21T08:06:41;3.00;;;1.57;;
2756;SDS011;1386;50.862;6.494;2022-08-21T08:09:08;3.10;;;1.50;;
2756;SDS011;1386;50.862;6.494;2022-08-21T08:11:35;5.77;;;2.00;;
2756;SDS011;1386;50.862;6.494;2022-08-21T08:14:04;5.30;;;2.23;;
2756;SDS011;1386;50.862;6.494;2022-08-21T08:16:31;4.47;;;1.97;;
2756;SDS011;1386;50.862;6.494;2022-08-21T08:18:58;4.13;;;1.97;;
2756;SDS011;1386;50.862;6.494;2022-08-21T08:21:25;3.13;;;1.93;;
2756;SDS011;1386;50.862;6.494;2022-08-21T08:23:52;4.43;;;1.60;;
2756;SDS011;1386;50.862;6.494;2022-08-21T08:26:19;3.10;;;1.40;;
2756;SDS011;1386;50.862;6.494;2022-08-21T08:28:47;6.40;;;2.33;;
2756;SDS011;1386;50.862;6.494;2022-08-21T08:31:15;6.37;;;1.87;;
2756;SDS011;1386;50.862;6.494;2022-08-21T08:33:42;4.40;;;2.07;;
2756;SDS011;1386;50.862;6.494;2022-08-21T08:36:12;4.87;;;1.90;;
2756;SDS011;1386;50.862;6.494;2022-08-21T08:38:40;6.60;;;2.20;;
2756;SDS011;1386;50.862;6.494;2022-08-21T08:41:09;2.60;;;1.37;;
2756;SDS011;1386;50.862;6.494;2022-08-21T08:43:38;4.30;;;1.73;;
2756;SDS011;1386;50.862;6.494;2022-08-21T08:46:18;3.53;;;1.50;;
2756;SDS011;1386;50.862;6.494;2022-08-21T08:48:53;3.80;;;1.70;;
2756;SDS011;1386;50.862;6.494;2022-08-21T08:51:24;6.60;;;1.97;;
2756;SDS011;1386;50.862;6.494;2022-08-21T08:54:07;3.77;;;1.63;;
2756;SDS011;1386;50.862;6.494;2022-08-21T08:56:38;4.00;;;1.57;;
2756;SDS011;1386;50.862;6.494;2022-08-21T08:59:07;3.83;;;1.23;;
2756;SDS011;1386;50.862;6.494;2022-08-21T09:01:40;7.60;;;1.93;;
2756;SDS011;1386;50.862;6.494;2022-08-21T09:04:08;5.67;;;2.10;;
2756;SDS011;1386;50.862;6.494;2022-08-21T09:06:42;4.57;;;1.70;;
2756;SDS011;1386;50.862;6.494;2022-08-21T09:09:22;4.03;;;1.70;;
2756;SDS011;1386;50.862;6.494;2022-08-21T09:12:02;4.67;;;1.70;;
2756;SDS011;1386;50.862;6.494;2022-08-21T09:14:50;1.93;;;1.30;;
2756;SDS011;1386;50.862;6.494;2022-08-21T09:17:32;6.33;;;2.00;;
2756;SDS011;1386;50.862;6.494;2022-08-21T09:20:11;3.57;;;1.50;;
2756;SDS011;1386;50.862;6.494;2022-08-21T09:22:48;5.90;;;1.87;;
2756;SDS011;1386;50.862;6.494;2022-08-21T09:25:27;5.20;;;1.80;;
2756;SDS011;1386;50.862;6.494;2022-08-21T09:27:56;3.00;;;1.60;;
2756;SDS011;1386;50.862;6.494;2022-08-21T09:30:25;4.00;;;1.70;;
2756;SDS011;1386;50.862;6.494;2022-08-21T09:32:55;4.60;;;1.67;;
2756;SDS011;1386;50.862;6.494;2022-08-21T09:35:22;3.60;;;1.77;;
2756;SDS011;1386;50.862;6.494;2022-08-21T09:37:51;6.83;;;1.90;;
2756;SDS011;1386;50.862;6.494;2022-08-21T09:40:23;3.57;;;1.37;;
2756;SDS011;1386;50.862;6.494;2022-08-21T09:42:57;3.50;;;1.73;;
2756;SDS011;1386;50.862;6.494;2022-08-21T09:45:26;3.87;;;1.57;;
2756;SDS011;1386;50.862;6.494;2022-08-21T09:47:55;2.20;;;1.60;;
2756;SDS011;1386;50.862;6.494;2022-08-21T09:50:23;4.37;;;1.70;;
2756;SDS011;1386;50.862;6.494;2022-08-21T09:52:53;2.97;;;1.90;;
2756;SDS011;1386;50.862;6.494;2022-08-21T09:55:28;6.90;;;1.70;;
2756;SDS011;1386;50.862;6.494;2022-08-21T09:58:15;5.33;;;1.60;;
2756;SDS011;1386;50.862;6.494;2022-08-21T10:00:43;3.40;;;1.40;;
2756;SDS011;1386;50.862;6.494;2022-08-21T10:03:15;4.40;;;1.70;;
2756;SDS011;1386;50.862;6.494;2022-08-21T10:05:55;5.60;;;2.13;;
2756;SDS011;1386;50.862;6.494;2022-08-21T10:08:24;5.53;;;1.87;;
2756;SDS011;1386;50.862;6.494;2022-08-21T10:10:55;3.97;;;1.50;;
2756;SDS011;1386;50.862;6.494;2022-08-21T10:13:31;3.43;;;1.73;;
2756;SDS011;1386;50.862;6.494;2022-08-21T10:16:09;5.43;;;2.07;;
2756;SDS011;1386;50.862;6.494;2022-08-21T10:18:47;7.23;;;2.00;;
2756;SDS011;1386;50.862;6.494;2022-08-21T10:21:27;4.77;;;1.80;;
2756;SDS011;1386;50.862;6.494;2022-08-21T10:24:00;4.33;;;1.90;;
2756;SDS011;1386;50.862;6.494;2022-08-21T10:26:38;6.33;;;1.87;;
2756;SDS011;1386;50.862;6.494;2022-08-21T10:29:18;5.43;;;1.50;;
2756;SDS011;1386;50.862;6.494;2022-08-21T10:31:56;6.50;;;1.93;;
2756;SDS011;1386;50.862;6.494;2022-08-21T10:34:34;3.43;;;1.60;;
2756;SDS011;1386;50.862;6.494;2022-08-21T10:37:18;4.13;;;1.50;;
2756;SDS011;1386;50.862;6.494;2022-08-21T10:40:07;4.53;;;1.67;;
2756;SDS011;1386;50.862;6.494;2022-08-21T10:42:46;7.20;;;2.40;;
2756;SDS011;1386;50.862;6.494;2022-08-21T10:45:23;4.50;;;1.60;;
2756;SDS011;1386;50.862;6.494;2022-08-21T10:48:01;3.90;;;1.80;;
2756;SDS011;1386;50.862;6.494;2022-08-21T10:50:43;5.30;;;2.10;;
2756;SDS011;1386;50.862;6.494;2022-08-21T10:56:16;5.97;;;1.53;;
2756;SDS011;1386;50.862;6.494;2022-08-21T10:58:46;4.60;;;2.20;;
2756;SDS011;1386;50.862;6.494;2022-08-21T11:01:24;5.50;;;1.80;;
2756;SDS011;1386;50.862;6.494;2022-08-21T11:03:59;5.00;;;1.70;;
2756;SDS011;1386;50.862;6.494;2022-08-21T11:06:36;5.33;;;1.70;;
2756;SDS011;1386;50.862;6.494;2022-08-21T11:09:09;4.40;;;1.53;;
2756;SDS011;1386;50.862;6.494;2022-08-21T11:11:41;10.30;;;2.07;;
2756;SDS011;1386;50.862;6.494;2022-08-21T11:14:19;3.37;;;1.70;;
2756;SDS011;1386;50.862;6.494;2022-08-21T11:16:53;3.63;;;2.00;;
2756;SDS011;1386;50.862;6.494;2022-08-21T11:19:28;9.40;;;2.40;;
2756;SDS011;1386;50.862;6.494;2022-08-21T11:22:00;6.07;;;2.10;;
2756;SDS011;1386;50.862;6.494;2022-08-21T11:24:35;3.80;;;1.60;;
2756;SDS011;1386;50.862;6.494;2022-08-21T11:27:12;2.90;;;1.57;;
2756;SDS011;1386;50.862;6.494;2022-08-21T11:29:46;6.57;;;2.73;;
2756;SDS011;1386;50.862;6.494;2022-08-21T11:32:29;4.20;;;1.50;;
2756;SDS011;1386;50.862;6.494;2022-08-21T11:35:10;8.27;;;1.70;;
2756;SDS011;1386;50.862;6.494;2022-08-21T11:37:50;6.37;;;2.20;;
2756;SDS011;1386;50.862;6.494;2022-08-21T11:40:31;3.50;;;2.00;;
2756;SDS011;1386;50.862;6.494;2022-08-21T11:43:08;4.30;;;1.80;;
2756;SDS011;1386;50.862;6.494;2022-08-21T11:45:39;3.50;;;1.87;;
2756;SDS011;1386;50.862;6.494;2022-08-21T11:48:14;5.77;;;1.80;;
2756;SDS011;1386;50.862;6.494;2022-08-21T11:50:59;6.23;;;1.80;;
2756;SDS011;1386;50.862;6.494;2022-08-21T11:53:32;7.77;;;2.00;;
2756;SDS011;1386;50.862;6.494;2022-08-21T11:56:05;4.90;;;1.53;;
2756;SDS011;1386;50.862;6.494;2022-08-21T11:58:36;9.30;;;2.40;;
2756;SDS011;1386;50.862;6.494;2022-08-21T12:01:08;4.57;;;2.20;;
2756;SDS011;1386;50.862;6.494;2022-08-21T12:03:38;3.93;;;1.83;;
2756;SDS011;1386;50.862;6.494;2022-08-21T12:06:09;2.47;;;1.27;;
2756;SDS011;1386;50.862;6.494;2022-08-21T12:08:40;4.57;;;2.00;;
2756;SDS011;1386;50.862;6.494;2022-08-21T12:11:09;5.93;;;1.57;;
2756;SDS011;1386;50.862;6.494;2022-08-21T12:13:52;4.83;;;2.07;;
2756;SDS011;1386;50.862;6.494;2022-08-21T12:16:28;3.70;;;1.57;;
2756;SDS011;1386;50.862;6.494;2022-08-21T12:19:02;6.07;;;1.70;;
2756;SDS011;1386;50.862;6.494;2022-08-21T12:21:30;4.83;;;1.67;;
2756;SDS011;1386;50.862;6.494;2022-08-21T12:24:04;5.37;;;1.97;;
2756;SDS011;1386;50.862;6.494;2022-08-21T12:26:53;4.90;;;1.60;;
2756;SDS011;1386;50.862;6.494;2022-08-21T12:29:22;3.50;;;1.73;;
2756;SDS011;1386;50.862;6.494;2022-08-21T12:31:53;3.50;;;1.73;;
2756;SDS011;1386;50.862;6.494;2022-08-21T12:34:29;4.47;;;1.80;;
2756;SDS011;1386;50.862;6.494;2022-08-21T12:37:00;3.43;;;1.73;;
2756;SDS011;1386;50.862;6.494;2022-08-21T12:39:31;2.93;;;1.77;;
2756;SDS011;1386;50.862;6.494;2022-08-21T12:42:04;5.10;;;1.77;;
2756;SDS011;1386;50.862;6.494;2022-08-21T12:44:35;7.60;;;2.30;;
2756;SDS011;1386;50.862;6.494;2022-08-21T12:47:11;5.17;;;1.80;;
2756;SDS011;1386;50.862;6.494;2022-08-21T12:49:44;4.00;;;1.53;;
2756;SDS011;1386;50.862;6.494;2022-08-21T12:52:19;4.70;;;1.90;;
2756;SDS011;1386;50.862;6.494;2022-08-21T12:54:50;5.67;;;1.70;;
2756;SDS011;1386;50.862;6.494;2022-08-21T12:57:18;4.37;;;1.60;;
2756;SDS011;1386;50.862;6.494;2022-08-21T13:31:27;2.57;;;1.40;;
2756;SDS011;1386;50.862;6.494;2022-08-21T13:33:57;4.47;;;1.67;;
2756;SDS011;1386;50.862;6.494;2022-08-21T13:36:25;5.10;;;1.77;;
2756;SDS011;1386;50.862;6.494;2022-08-21T13:38:57;2.47;;;1.30;;
2756;SDS011;1386;50.862;6.494;2022-08-21T13:41:26;4.90;;;2.10;;
2756;SDS011;1386;50.862;6.494;2022-08-21T13:43:59;3.83;;;1.30;;
2756;SDS011;1386;50.862;6.494;2022-08-21T13:46:30;4.30;;;1.67;;
2756;SDS011;1386;50.862;6.494;2022-08-21T13:48:59;4.07;;;1.50;;
2756;SDS011;1386;50.862;6.494;2022-08-21T13:51:29;2.07;;;1.27;;
2756;SDS011;1386;50.862;6.494;2022-08-21T13:53:56;3.20;;;1.67;;
2756;SDS011;1386;50.862;6.494;2022-08-21T13:56:24;2.70;;;1.47;;
2756;SDS011;1386;50.862;6.494;2022-08-21T13:58:53;2.70;;;1.37;;
2756;SDS011;1386;50.862;6.494;2022-08-21T14:01:23;2.73;;;1.33;;
2756;SDS011;1386;50.862;6.494;2022-08-21T14:03:56;2.30;;;1.30;;
2756;SDS011;1386;50.862;6.494;2022-08-21T14:06:27;3.40;;;1.60;;
2756;SDS011;1386;50.862;6.494;2022-08-21T14:08:59;3.80;;;1.60;;
2756;SDS011;1386;50.862;6.494;2022-08-21T14:11:33;3.27;;;1.60;;
2756;SDS011;1386;50.862;6.494;2022-08-21T14:14:02;4.17;;;1.37;;
2756;SDS011;1386;50.862;6.494;2022-08-21T14:16:41;2.40;;;1.50;;
2756;SDS011;1386;50.862;6.494;2022-08-21T14:19:18;5.67;;;1.73;;
2756;SDS011;1386;50.862;6.494;2022-08-21T14:21:46;3.63;;;1.30;;
2756;SDS011;1386;50.862;6.494;2022-08-21T14:24:24;2.70;;;1.33;;
2756;SDS011;1386;50.862;6.494;2022-08-21T14:26:54;3.67;;;1.60;;
2756;SDS011;1386;50.862;6.494;2022-08-21T14:29:25;3.97;;;1.50;;
2756;SDS011;1386;50.862;6.494;2022-08-21T14:31:54;3.33;;;1.57;;
2756;SDS011;1386;50.862;6.494;2022-08-21T14:34:26;4.97;;;2.00;;
2756;SDS011;1386;50.862;6.494;2022-08-21T14:36:55;3.40;;;1.73;;
2756;SDS011;1386;50.862;6.494;2022-08-21T14:39:22;4.57;;;1.40;;
2756;SDS011;1386;50.862;6.494;2022-08-21T14:41:49;2.17;;;1.10;;
2756;SDS011;1386;50.862;6.494;2022-08-21T14:44:18;2.70;;;1.20;;
2756;SDS011;1386;50.862;6.494;2022-08-21T14:46:45;3.10;;;1.67;;
2756;SDS011;1386;50.862;6.494;2022-08-21T14:49:12;4.83;;;1.47;;
2756;SDS011;1386;50.862;6.494;2022-08-21T14:51:41;5.87;;;2.03;;
2756;SDS011;1386;50.862;6.494;2022-08-21T14:54:08;2.80;;;1.33;;
2756;SDS011;1386;50.862;6.494;2022-08-21T14:56:34;2.43;;;1.20;;
2756;SDS011;1386;50.862;6.494;2022-08-21T14:59:03;4.53;;;1.57;;
2756;SDS011;1386;50.862;6.494;2022-08-21T15:01:32;3.80;;;1.20;;
2756;SDS011;1386;50.862;6.494;2022-08-21T15:04:02;2.43;;;1.30;;
2756;SDS011;1386;50.862;6.494;2022-08-21T15:06:30;4.13;;;1.57;;
2756;SDS011;1386;50.862;6.494;2022-08-21T15:08:58;1.93;;;1.07;;
2756;SDS011;1386;50.862;6.494;2022-08-21T15:11:27;2.43;;;1.30;;
2756;SDS011;1386;50.862;6.494;2022-08-21T15:13:55;4.13;;;1.40;;
2756;SDS011;1386;50.862;6.494;2022-08-21T15:16:23;2.60;;;1.30;;
2756;SDS011;1386;50.862;6.494;2022-08-21T15:18:50;3.40;;;1.30;;
2756;SDS011;1386;50.862;6.494;2022-08-21T15:21:17;4.57;;;1.80;;
2756;SDS011;1386;50.862;6.494;2022-08-21T15:23:44;3.23;;;1.50;;
2756;SDS011;1386;50.862;6.494;2022-08-21T15:26:13;3.70;;;1.50;;
2756;SDS011;1386;50.862;6.494;2022-08-21T15:28:40;2.20;;;1.33;;
2756;SDS011;1386;50.862;6.494;2022-08-21T15:31:07;3.97;;;1.70;;
2756;SDS011;1386;50.862;6.494;2022-08-21T15:33:34;5.23;;;1.57;;
2756;SDS011;1386;50.862;6.494;2022-08-21T15:36:01;2.63;;;1.43;;
2756;SDS011;1386;50.862;6.494;2022-08-21T15:38:28;5.60;;;1.50;;
2756;SDS011;1386;50.862;6.494;2022-08-21T15:40:55;1.60;;;1.00;;
2756;SDS011;1386;50.862;6.494;2022-08-21T15:43:24;2.73;;;1.30;;
2756;SDS011;1386;50.862;6.494;2022-08-21T15:45:53;1.37;;;1.07;;
2756;SDS011;1386;50.862;6.494;2022-08-21T15:48:20;3.37;;;1.50;;
2756;SDS011;1386;50.862;6.494;2022-08-21T15:50:47;3.63;;;1.43;;
2756;SDS011;1386;50.862;6.494;2022-08-21T15:53:14;2.50;;;1.20;;
2756;SDS011;1386;50.862;6.494;2022-08-21T15:55:42;2.93;;;1.30;;
2756;SDS011;1386;50.862;6.494;2022-08-21T15:58:12;2.00;;;1.27;;
2756;SDS011;1386;50.862;6.494;2022-08-21T16:00:43;3.20;;;1.10;;
2756;SDS011;1386;50.862;6.494;2022-08-21T16:03:12;3.10;;;1.60;;
2756;SDS011;1386;50.862;6.494;2022-08-21T16:05:41;3.73;;;1.23;;
2756;SDS011;1386;50.862;6.494;2022-08-21T16:08:09;3.70;;;1.70;;
2756;SDS011;1386;50.862;6.494;2022-08-21T16:10:36;2.10;;;1.50;;
2756;SDS011;1386;50.862;6.494;2022-08-21T16:13:05;4.07;;;1.77;;
2756;SDS011;1386;50.862;6.494;2022-08-21T16:15:36;2.53;;;1.43;;
2756;SDS011;1386;50.862;6.494;2022-08-21T16:18:04;2.90;;;1.43;;
2756;SDS011;1386;50.862;6.494;2022-08-21T16:20:31;7.23;;;1.43;;
2756;SDS011;1386;50.862;6.494;2022-08-21T16:22:58;2.47;;;1.37;;
2756;SDS011;1386;50.862;6.494;2022-08-21T16:25:25;3.00;;;1.40;;
2756;SDS011;1386;50.862;6.494;2022-08-21T16:27:54;3.30;;;1.67;;
2756;SDS011;1386;50.862;6.494;2022-08-21T16:30:26;3.93;;;1.80;;
2756;SDS011;1386;50.862;6.494;2022-08-21T16:32:54;3.57;;;1.40;;
2756;SDS011;1386;50.862;6.494;2022-08-21T16:35:23;5.70;;;1.97;;
2756;SDS011;1386;50.862;6.494;2022-08-21T16:37:50;3.30;;;1.77;;
2756;SDS011;1386;50.862;6.494;2022-08-21T16:40:32;4.70;;;1.63;;
2756;SDS011;1386;50.862;6.494;2022-08-21T16:42:58;3.20;;;1.33;;
2756;SDS011;1386;50.862;6.494;2022-08-21T16:45:25;3.20;;;1.60;;
2756;SDS011;1386;50.862;6.494;2022-08-21T16:47:53;5.03;;;2.03;;
2756;SDS011;1386;50.862;6.494;2022-08-21T16:50:20;5.80;;;1.77;;
2756;SDS011;1386;50.862;6.494;2022-08-21T16:52:49;4.30;;;1.63;;
2756;SDS011;1386;50.862;6.494;2022-08-21T16:55:17;3.00;;;1.53;;
2756;SDS011;1386;50.862;6.494;2022-08-21T16:57:44;6.30;;;1.63;;
2756;SDS011;1386;50.862;6.494;2022-08-21T17:00:11;4.27;;;1.77;;
2756;SDS011;1386;50.862;6.494;2022-08-21T17:02:41;4.70;;;1.70;;
2756;SDS011;1386;50.862;6.494;2022-08-21T17:05:10;8.17;;;1.70;;
2756;SDS011;1386;50.862;6.494;2022-08-21T17:07:39;7.60;;;2.10;;
2756;SDS011;1386;50.862;6.494;2022-08-21T17:10:07;3.27;;;1.57;;
2756;SDS011;1386;50.862;6.494;2022-08-21T17:12:36;5.20;;;1.57;;
2756;SDS011;1386;50.862;6.494;2022-08-21T17:15:04;2.77;;;1.30;;
2756;SDS011;1386;50.862;6.494;2022-08-21T17:17:33;3.90;;;1.80;;
2756;SDS011;1386;50.862;6.494;2022-08-21T17:20:00;2.70;;;1.30;;
2756;SDS011;1386;50.862;6.494;2022-08-21T17:22:28;3.23;;;2.07;;
2756;SDS011;1386;50.862;6.494;2022-08-21T17:24:56;3.17;;;1.57;;
2756;SDS011;1386;50.862;6.494;2022-08-21T17:27:23;4.77;;;1.80;;
2756;SDS011;1386;50.862;6.494;2022-08-21T17:29:52;4.37;;;1.60;;
2756;SDS011;1386;50.862;6.494;2022-08-21T17:32:20;5.50;;;1.27;;
2756;SDS011;1386;50.862;6.494;2022-08-21T17:34:48;4.47;;;1.80;;
2756;SDS011;1386;50.862;6.494;2022-08-21T17:37:16;7.77;;;1.70;;
2756;SDS011;1386;50.862;6.494;2022-08-21T17:39:43;2.87;;;1.50;;
2756;SDS011;1386;50.862;6.494;2022-08-21T17:42:12;5.00;;;1.70;;
2756;SDS011;1386;50.862;6.494;2022-08-21T17:44:40;4.10;;;1.13;;
2756;SDS011;1386;50.862;6.494;2022-08-21T17:47:09;2.60;;;1.47;;
2756;SDS011;1386;50.862;6.494;2022-08-21T17:49:38;4.27;;;1.50;;
2756;SDS011;1386;50.862;6.494;2022-08-21T17:52:05;2.70;;;1.17;;
2756;SDS011;1386;50.862;6.494;2022-08-21T17:54:33;3.70;;;1.43;;
2756;SDS011;1386;50.862;6.494;2022-08-21T17:57:01;4.83;;;1.50;;
2756;SDS011;1386;50.862;6.494;2022-08-21T17:59:30;4.27;;;1.83;;
2756;SDS011;1386;50.862;6.494;2022-08-21T18:01:58;3.70;;;1.57;;
2756;SDS011;1386;50.862;6.494;2022-08-21T18:04:26;4.03;;;1.60;;
2756;SDS011;1386;50.862;6.494;2022-08-21T18:06:54;3.33;;;1.43;;
2756;SDS011;1386;50.862;6.494;2022-08-21T18:09:21;2.47;;;1.43;;
2756;SDS011;1386;50.862;6.494;2022-08-21T18:11:52;4.80;;;1.60;;
2756;SDS011;1386;50.862;6.494;2022-08-21T18:14:21;3.47;;;1.60;;
2756;SDS011;1386;50.862;6.494;2022-08-21T18:16:53;4.70;;;1.77;;
2756;SDS011;1386;50.862;6.494;2022-08-21T18:19:21;2.43;;;1.20;;
2756;SDS011;1386;50.862;6.494;2022-08-21T18:21:50;3.23;;;1.50;;
2756;SDS011;1386;50.862;6.494;2022-08-21T18:24:17;5.97;;;2.17;;
2756;SDS011;1386;50.862;6.494;2022-08-21T18:26:45;3.83;;;1.20;;
2756;SDS011;1386;50.862;6.494;2022-08-21T18:29:12;5.63;;;1.73;;
2756;SDS011;1386;50.862;6.494;2022-08-21T18:31:42;3.67;;;1.70;;
2756;SDS011;1386;50.862;6.494;2022-08-21T18:34:18;3.30;;;1.63;;
2756;SDS011;1386;50.862;6.494;2022-08-21T18:36:48;3.13;;;1.67;;
2756;SDS011;1386;50.862;6.494;2022-08-21T18:39:16;4.90;;;1.50;;
2756;SDS011;1386;50.862;6.494;2022-08-21T18:41:43;5.17;;;1.70;;
2756;SDS011;1386;50.862;6.494;2022-08-21T18:44:11;3.03;;;1.37;;
2756;SDS011;1386;50.862;6.494;2022-08-21T18:46:39;4.50;;;1.20;;
2756;SDS011;1386;50.862;6.494;2022-08-21T18:49:07;3.60;;;1.40;;
2756;SDS011;1386;50.862;6.494;2022-08-21T18:51:35;4.30;;;1.50;;
2756;SDS011;1386;50.862;6.494;2022-08-21T18:54:02;3.73;;;1.60;;
2756;SDS011;1386;50.862;6.494;2022-08-21T18:56:29;2.73;;;1.60;;
2756;SDS011;1386;50.862;6.494;2022-08-21T18:58:57;2.93;;;1.77;;
2756;SDS011;1386;50.862;6.494;2022-08-21T19:01:25;2.80;;;1.37;;
2756;SDS011;1386;50.862;6.494;2022-08-21T19:03:52;3.17;;;1.70;;
2756;SDS011;1386;50.862;6.494;2022-08-21T19:06:19;5.10;;;2.00;;
2756;SDS011;1386;50.862;6.494;2022-08-21T19:08:47;2.70;;;1.30;;
2756;SDS011;1386;50.862;6.494;2022-08-21T19:11:14;3.67;;;1.60;;
2756;SDS011;1386;50.862;6.494;2022-08-21T19:13:42;6.07;;;1.47;;
2756;SDS011;1386;50.862;6.494;2022-08-21T19:16:09;4.90;;;1.53;;
2756;SDS011;1386;50.862;6.494;2022-08-21T19:18:37;3.10;;;1.50;;
2756;SDS011;1386;50.862;6.494;2022-08-21T19:21:06;6.50;;;1.40;;
2756;SDS011;1386;50.862;6.494;2022-08-21T19:23:33;2.60;;;1.40;;